createdAt,value
2017-07-21T00:02:04.015Z,23.40
2017-07-21T00:04:32.286Z,23.30
2017-07-21T00:16:02.985Z,23.30
2017-07-21T00:18:31.576Z,23.30
2017-07-21T00:20:59.838Z,23.40
2017-07-21T00:29:06.574Z,23.10
2017-07-21T00:31:36.223Z,22.40
2017-07-21T00:34:04.493Z,22.30
2017-07-21T00:36:32.730Z,22.20
2017-07-21T00:39:01.034Z,21.90
2017-07-21T00:44:30.056Z,20.90
2017-07-21T00:49:58.991Z,20.70
2017-07-21T00:55:41.785Z,20.50
2017-07-21T00:58:10.805Z,20.60
2017-07-21T01:00:39.032Z,20.50
2017-07-21T01:03:07.311Z,20.40
2017-07-21T01:05:36.325Z,20.30
2017-07-21T01:08:04.555Z,20.30
2017-07-21T01:10:32.827Z,20.40
2017-07-21T01:13:01.044Z,20.40
2017-07-21T01:21:30.939Z,20.20
2017-07-21T01:23:59.165Z,20.20
2017-07-21T01:26:28.189Z,20.30
2017-07-21T01:28:56.443Z,20.20
2017-07-21T01:34:25.584Z,20.30
2017-07-21T01:39:53.974Z,20.20
2017-07-21T01:42:22.576Z,20.10
2017-07-21T01:44:50.810Z,20.10
2017-07-21T01:53:20.522Z,20.30
2017-07-21T01:55:48.830Z,20.30
2017-07-21T02:07:41.495Z,20.40
2017-07-21T02:10:09.767Z,20.40
2017-07-21T02:12:41.760Z,20.40
2017-07-21T02:18:12.032Z,20.60
2017-07-21T02:20:43.556Z,20.60
2017-07-21T02:23:11.830Z,21.10
2017-07-21T02:25:40.126Z,21.50
2017-07-21T02:40:11.302Z,20.60
2017-07-21T02:45:40.901Z,20.50
2017-07-21T02:51:10.365Z,20.50
2017-07-21T02:56:39.109Z,20.50
2017-07-21T02:59:07.368Z,20.60
2017-07-21T03:01:36.365Z,20.50
2017-07-21T03:04:04.677Z,20.50
2017-07-21T03:06:32.908Z,20.40
2017-07-21T03:15:04.291Z,20.40
2017-07-21T03:17:45.488Z,20.40
2017-07-21T03:20:13.754Z,21.10
2017-07-21T03:28:44.314Z,20.30
2017-07-21T03:31:13.419Z,20.10
2017-07-21T03:33:42.469Z,20.20
2017-07-21T03:39:11.720Z,20.30
2017-07-21T03:41:40.823Z,20.50
2017-07-21T03:47:09.920Z,20.30
2017-07-21T03:49:38.185Z,20.20
2017-07-21T03:55:06.690Z,20.30
2017-07-21T03:57:34.971Z,20.30
2017-07-21T04:03:03.987Z,20.60
2017-07-21T04:11:41.689Z,20.50
2017-07-21T04:14:09.963Z,20.50
2017-07-21T04:16:38.294Z,20.70
2017-07-21T04:19:07.377Z,20.90
2017-07-21T04:21:36.379Z,20.80
2017-07-21T04:24:04.650Z,20.80
2017-07-21T04:26:43.205Z,20.80
2017-07-21T04:29:11.762Z,20.90
2017-07-21T04:31:40.023Z,20.70
2017-07-21T04:34:09.061Z,20.80
2017-07-21T04:36:37.310Z,20.70
2017-07-21T04:39:05.576Z,20.90
2017-07-21T04:41:34.626Z,21.00
2017-07-21T04:44:02.902Z,21.00
2017-07-21T04:46:31.179Z,21.10
2017-07-21T04:48:59.474Z,20.90
2017-07-21T04:51:27.851Z,20.80
2017-07-21T04:56:56.656Z,20.80
2017-07-21T04:59:25.776Z,20.70
2017-07-21T05:07:55.551Z,20.60
2017-07-21T05:10:23.819Z,20.60
2017-07-21T05:12:52.074Z,20.70
2017-07-21T05:18:41.042Z,20.80
2017-07-21T05:24:40.951Z,21.00
2017-07-21T05:33:11.238Z,21.30
2017-07-21T05:38:40.920Z,21.30
2017-07-21T05:41:09.173Z,21.30
2017-07-21T05:52:39.465Z,20.90
2017-07-21T05:55:07.727Z,21.00
2017-07-21T05:57:44.378Z,21.10
2017-07-21T06:00:13.508Z,20.90
2017-07-21T06:02:41.784Z,20.90
2017-07-21T06:05:10.998Z,21.00
2017-07-21T06:07:39.361Z,21.10
2017-07-21T06:13:07.970Z,21.00
2017-07-21T06:24:38.414Z,21.00
2017-07-21T06:27:07.483Z,21.00
2017-07-21T06:29:42.432Z,21.00
2017-07-21T06:35:11.375Z,21.40
2017-07-21T06:37:39.721Z,21.10
2017-07-21T06:40:08.740Z,21.00
2017-07-21T06:48:38.145Z,21.10
2017-07-21T06:51:07.226Z,21.20
2017-07-21T07:02:37.779Z,21.20
2017-07-21T07:05:06.025Z,21.20
2017-07-21T07:07:34.334Z,21.30
2017-07-21T07:10:02.688Z,21.30
2017-07-21T07:15:31.385Z,21.30
2017-07-21T07:18:00.455Z,21.30
2017-07-21T07:23:30.277Z,21.30
2017-07-21T07:25:58.565Z,21.30
2017-07-21T07:28:42.150Z,21.40
2017-07-21T07:31:10.407Z,21.30
2017-07-21T07:36:39.644Z,21.50
2017-07-21T07:45:18.608Z,21.50
2017-07-21T07:50:47.464Z,21.50
2017-07-21T07:53:15.726Z,21.60
2017-07-21T07:58:44.675Z,21.70
2017-07-21T08:07:21.438Z,21.80
2017-07-21T08:13:07.735Z,21.90
2017-07-21T08:21:47.048Z,22.00
2017-07-21T08:27:38.494Z,22.10
2017-07-21T08:42:09.155Z,22.50
2017-07-21T08:44:37.482Z,22.50
2017-07-21T08:50:05.440Z,22.60
2017-07-21T08:55:42.454Z,22.70
2017-07-21T08:58:10.733Z,22.70
2017-07-21T09:00:39.002Z,22.80
2017-07-21T09:03:07.307Z,22.90
2017-07-21T09:05:35.542Z,23.00
2017-07-21T09:08:03.791Z,22.90
2017-07-21T09:10:32.069Z,23.00
2017-07-21T09:13:00.397Z,23.00
2017-07-21T09:15:28.722Z,23.00
2017-07-21T09:18:02.844Z,23.00
2017-07-21T09:20:31.077Z,23.20
2017-07-21T09:23:00.092Z,23.40
2017-07-21T09:25:28.431Z,23.30
2017-07-21T09:27:56.675Z,23.40
2017-07-21T09:30:24.967Z,23.50
2017-07-21T09:32:53.300Z,23.60
2017-07-21T09:35:21.563Z,23.70
2017-07-21T09:37:49.853Z,23.70
2017-07-21T09:40:18.157Z,23.80
2017-07-21T09:42:46.736Z,23.90
2017-07-21T09:45:23.283Z,23.90
2017-07-21T09:47:51.570Z,24.00
2017-07-21T09:50:19.809Z,24.20
2017-07-21T09:52:48.871Z,24.30
2017-07-21T09:55:17.107Z,24.30
2017-07-21T09:58:01.833Z,24.30
2017-07-21T10:00:30.912Z,24.40
2017-07-21T10:03:00.562Z,24.50
2017-07-21T10:05:28.894Z,24.50
2017-07-21T10:07:57.198Z,24.70
2017-07-21T10:10:26.205Z,24.90
2017-07-21T10:12:54.479Z,24.90
2017-07-21T10:15:22.780Z,24.80
2017-07-21T10:17:51.031Z,24.90
2017-07-21T10:20:19.282Z,24.90
2017-07-21T10:22:48.369Z,24.90
2017-07-21T10:25:16.630Z,24.80
2017-07-21T10:27:44.900Z,24.90
2017-07-21T10:30:13.189Z,24.90
2017-07-21T10:32:41.463Z,24.90
2017-07-21T10:35:09.728Z,25.00
2017-07-21T10:37:37.992Z,25.20
2017-07-21T10:42:43.562Z,25.20
2017-07-21T10:45:11.862Z,25.20
2017-07-21T10:47:40.917Z,25.40
2017-07-21T10:50:09.165Z,25.40
2017-07-21T10:52:37.463Z,25.50
2017-07-21T10:55:05.733Z,25.60
2017-07-21T10:57:33.994Z,25.60
2017-07-21T11:00:02.287Z,25.50
2017-07-21T11:02:30.547Z,25.80
2017-07-21T11:04:58.898Z,25.80
2017-07-21T11:07:27.971Z,26.00
2017-07-21T11:09:56.235Z,26.00
2017-07-21T11:12:24.577Z,26.10
2017-07-21T11:14:52.849Z,26.30
2017-07-21T11:17:21.110Z,26.40
2017-07-21T11:19:49.449Z,26.50
2017-07-21T11:22:17.788Z,26.50
2017-07-21T11:24:46.028Z,26.50
2017-07-21T11:27:16.130Z,26.40
2017-07-21T11:29:45.191Z,26.50
2017-07-21T11:38:14.501Z,26.90
2017-07-21T11:41:01.985Z,26.80
2017-07-21T11:43:30.324Z,27.00
2017-07-21T11:46:02.155Z,26.80
2017-07-21T11:48:30.495Z,27.00
2017-07-21T11:50:59.769Z,27.10
2017-07-21T11:53:28.039Z,27.10
2017-07-21T11:55:57.283Z,27.20
2017-07-21T11:58:26.374Z,27.30
2017-07-21T12:00:54.643Z,27.20
2017-07-21T12:03:22.963Z,27.10
2017-07-21T12:05:51.229Z,27.20
2017-07-21T12:08:19.486Z,27.30
2017-07-21T12:10:48.534Z,27.30
2017-07-21T12:13:16.762Z,27.30
2017-07-21T12:15:45.150Z,27.50
2017-07-21T12:18:14.232Z,27.30
2017-07-21T12:20:42.793Z,27.50
2017-07-21T12:23:11.112Z,27.50
2017-07-21T12:25:39.351Z,27.60
2017-07-21T12:31:09.502Z,27.60
2017-07-21T12:33:38.498Z,27.80
2017-07-21T12:36:06.779Z,27.80
2017-07-21T12:38:35.488Z,28.10
2017-07-21T12:41:03.758Z,28.30
2017-07-21T12:43:32.020Z,28.30
2017-07-21T12:46:01.052Z,28.70
2017-07-21T12:48:29.316Z,28.60
2017-07-21T12:53:41.580Z,29.00
2017-07-21T12:56:09.824Z,29.00
2017-07-21T13:01:38.764Z,29.00
2017-07-21T13:04:07.007Z,29.10
2017-07-21T13:06:35.248Z,29.30
2017-07-21T13:09:03.556Z,29.50
2017-07-21T13:11:31.811Z,29.80
2017-07-21T13:14:00.056Z,29.70
2017-07-21T13:16:29.118Z,30.10
2017-07-21T13:21:57.348Z,30.20
2017-07-21T13:24:26.353Z,30.50
2017-07-21T13:27:01.350Z,30.50
2017-07-21T13:29:29.637Z,30.90
2017-07-21T13:31:57.889Z,31.20
2017-07-21T13:34:26.510Z,31.30
2017-07-21T13:36:54.763Z,31.20
2017-07-21T13:39:23.001Z,31.50
2017-07-21T13:41:51.288Z,31.50
2017-07-21T13:44:19.525Z,31.60
2017-07-21T13:47:01.049Z,31.30
2017-07-21T13:49:29.310Z,31.50
2017-07-21T13:52:01.275Z,32.20
2017-07-21T13:54:29.540Z,32.40
2017-07-21T13:56:57.819Z,32.50
2017-07-21T13:59:26.521Z,32.40
2017-07-21T14:01:54.780Z,32.90
2017-07-21T14:04:23.035Z,33.20
2017-07-21T14:06:51.369Z,33.90
2017-07-21T14:09:19.615Z,33.90
2017-07-21T14:11:47.878Z,33.80
2017-07-21T14:14:16.140Z,34.10
2017-07-21T14:16:44.428Z,34.80
2017-07-21T14:19:12.803Z,35.00
2017-07-21T14:21:41.065Z,35.30
2017-07-21T14:24:09.345Z,35.20
2017-07-21T14:26:37.694Z,35.60
2017-07-21T14:29:05.957Z,36.20
2017-07-21T14:31:34.262Z,36.30
2017-07-21T14:37:03.198Z,36.70
2017-07-21T14:39:31.477Z,36.90
2017-07-21T14:41:59.748Z,37.70
2017-07-21T14:44:28.063Z,38.20
2017-07-21T14:46:56.355Z,37.20
2017-07-21T14:49:25.464Z,37.90
2017-07-21T14:51:54.109Z,37.90
2017-07-21T14:54:22.634Z,36.70
2017-07-21T14:57:02.093Z,37.40
2017-07-21T14:59:30.424Z,37.40
2017-07-21T15:02:01.954Z,36.80
2017-07-21T15:04:30.284Z,36.50
2017-07-21T15:06:58.558Z,37.30
2017-07-21T15:09:26.858Z,37.40
2017-07-21T15:12:01.229Z,38.00
2017-07-21T15:14:29.534Z,38.70
2017-07-21T15:16:57.923Z,39.20
2017-07-21T15:19:26.231Z,39.60
2017-07-21T15:21:54.505Z,39.70
2017-07-21T15:24:23.752Z,39.40
2017-07-21T15:26:52.007Z,39.80
2017-07-21T15:29:20.323Z,40.30
2017-07-21T15:31:48.609Z,40.10
2017-07-21T15:34:16.892Z,40.40
2017-07-21T15:36:45.611Z,40.10
2017-07-21T15:39:13.871Z,39.60
2017-07-21T15:41:42.215Z,39.60
2017-07-21T15:44:10.579Z,39.70
2017-07-21T15:46:41.888Z,40.10
2017-07-21T15:49:10.189Z,39.80
2017-07-21T15:51:38.469Z,39.80
2017-07-21T15:54:06.725Z,40.30
2017-07-21T15:56:42.488Z,39.90
2017-07-21T15:59:11.505Z,39.80
2017-07-21T16:01:40.231Z,39.80
2017-07-21T16:04:08.644Z,40.60
2017-07-21T16:06:43.828Z,40.00
2017-07-21T16:09:12.071Z,40.10
2017-07-21T16:11:40.302Z,39.90
2017-07-21T16:14:09.790Z,40.80
2017-07-21T16:17:01.584Z,41.10
2017-07-21T16:19:59.992Z,41.10
2017-07-21T16:22:28.317Z,41.50
2017-07-21T16:24:56.576Z,41.60
2017-07-21T16:27:24.906Z,41.40
2017-07-21T16:29:53.174Z,40.90
2017-07-21T16:32:21.460Z,40.70
2017-07-21T16:34:49.820Z,41.10
2017-07-21T16:40:18.475Z,40.90
2017-07-21T16:42:46.774Z,41.00
2017-07-21T16:45:15.023Z,41.10
2017-07-21T16:47:43.915Z,40.90
2017-07-21T16:53:13.336Z,40.40
2017-07-21T16:55:43.148Z,40.40
2017-07-21T16:58:41.745Z,39.90
2017-07-21T17:01:09.982Z,40.00
2017-07-21T17:04:01.555Z,39.70
2017-07-21T17:06:43.835Z,40.10
2017-07-21T17:09:12.138Z,39.80
2017-07-21T17:12:06.297Z,39.80
2017-07-21T17:15:01.123Z,39.30
2017-07-21T17:17:30.145Z,38.60
2017-07-21T17:20:00.481Z,38.60
2017-07-21T17:22:59.117Z,39.10
2017-07-21T17:25:27.346Z,39.90
2017-07-21T17:27:55.591Z,40.20
2017-07-21T17:30:23.866Z,40.30
2017-07-21T17:32:52.862Z,40.30
2017-07-21T17:35:21.119Z,40.30
2017-07-21T17:37:49.420Z,40.10
2017-07-21T17:40:17.663Z,38.80
2017-07-21T17:42:46.816Z,37.20
2017-07-21T17:45:15.119Z,37.10
2017-07-21T17:47:43.372Z,37.60
2017-07-21T17:50:11.666Z,38.20
2017-07-21T17:53:00.610Z,37.30
2017-07-21T17:55:28.872Z,36.70
2017-07-21T17:57:57.181Z,36.60
2017-07-21T18:00:26.031Z,35.80
2017-07-21T18:08:56.213Z,37.10
2017-07-21T18:17:53.228Z,36.80
2017-07-21T18:20:21.490Z,36.30
2017-07-21T18:22:49.742Z,36.60
2017-07-21T18:25:18.026Z,36.00
2017-07-21T18:27:56.113Z,35.50
2017-07-21T18:30:24.500Z,35.90
2017-07-21T18:32:52.750Z,36.10
2017-07-21T18:35:21.031Z,36.00
2017-07-21T18:37:50.302Z,36.00
2017-07-21T18:40:18.551Z,35.90
2017-07-21T18:42:46.776Z,35.80
2017-07-21T18:48:15.746Z,35.10
2017-07-21T18:53:45.045Z,35.20
2017-07-21T18:56:13.319Z,34.50
2017-07-21T18:58:41.574Z,34.80
2017-07-21T19:01:10.648Z,35.00
2017-07-21T19:03:38.930Z,35.10
2017-07-21T19:06:07.170Z,35.10
2017-07-21T19:08:35.551Z,34.90
2017-07-21T19:11:03.769Z,34.70
2017-07-21T19:13:32.054Z,34.70
2017-07-21T19:16:00.430Z,34.50
2017-07-21T19:18:28.690Z,34.20
2017-07-21T19:20:56.947Z,33.90
2017-07-21T19:23:39.612Z,33.40
2017-07-21T19:26:07.849Z,33.40
2017-07-21T19:28:36.383Z,33.60
2017-07-21T19:31:04.716Z,33.80
2017-07-21T19:33:32.947Z,33.80
2017-07-21T19:36:01.190Z,33.80
2017-07-21T19:44:44.403Z,33.20
2017-07-21T19:50:13.583Z,33.10
2017-07-21T20:01:44.193Z,32.20
2017-07-21T20:04:12.409Z,32.10
2017-07-21T20:09:45.733Z,31.80
2017-07-21T20:12:13.979Z,31.80
2017-07-21T20:15:09.239Z,31.40
2017-07-21T20:20:38.201Z,30.70
2017-07-21T20:29:07.908Z,31.30
2017-07-21T20:31:36.171Z,31.30
2017-07-21T20:34:04.444Z,31.40
2017-07-21T20:36:33.995Z,31.30
2017-07-21T20:39:02.416Z,31.30
2017-07-21T20:44:31.178Z,31.10
2017-07-21T20:47:00.198Z,30.90
2017-07-21T20:49:41.781Z,30.90
2017-07-21T20:58:41.211Z,30.60
2017-07-21T21:04:10.015Z,30.40
2017-07-21T21:09:39.327Z,30.30
2017-07-21T21:12:08.326Z,30.10
2017-07-21T21:14:37.350Z,30.00
2017-07-21T21:20:06.813Z,29.80
2017-07-21T21:25:35.505Z,29.70
2017-07-21T21:28:03.742Z,29.60
2017-07-21T21:33:33.324Z,29.20
2017-07-21T21:36:31.684Z,29.20
2017-07-21T21:38:59.987Z,29.10
2017-07-21T21:41:28.988Z,29.00
2017-07-21T21:43:58.037Z,28.80
2017-07-21T21:49:26.831Z,28.60
2017-07-21T21:51:55.161Z,28.50
2017-07-21T21:54:23.436Z,28.00
2017-07-21T21:56:51.718Z,28.20
2017-07-21T21:59:40.727Z,28.30
2017-07-21T22:14:11.686Z,27.90
2017-07-21T22:16:39.959Z,27.90
2017-07-21T22:19:08.190Z,27.90
2017-07-21T22:33:17.150Z,27.20
2017-07-21T22:35:46.202Z,27.30
2017-07-21T22:38:15.126Z,27.30
2017-07-21T22:43:44.042Z,26.80
2017-07-21T22:55:16.133Z,26.80
2017-07-21T23:00:45.247Z,26.70
2017-07-21T23:03:13.475Z,26.70
2017-07-21T23:05:42.496Z,26.50
2017-07-21T23:14:11.869Z,26.40
2017-07-21T23:16:40.130Z,26.50
2017-07-21T23:19:08.399Z,26.30
2017-07-21T23:21:36.694Z,26.20
2017-07-21T23:24:04.975Z,26.10
2017-07-21T23:29:33.303Z,25.40
2017-07-21T23:32:02.324Z,25.20
2017-07-21T23:34:30.587Z,25.20
2017-07-21T23:42:59.584Z,24.80
2017-07-21T23:45:27.843Z,24.80
2017-07-21T23:47:56.098Z,24.90
2017-07-21T23:59:25.351Z,24.80
